Time;durP1;ratioP1;P1;durP2;ratioP2;P2;SDS_P1;SDS_P2;PMS_P1;PMS_P2;Temp;Humidity;BMP_temperature;BMP_pressure;BME280_temperature;BME280_humidity;BME280_pressure;Samples;Min_cycle;Max_cycle;Signal;HPM_P1;HPM_P2
2022/04/29 00:00:40;;;;;;;;;26.20;23.80;;;;;17.09;42.88;102044.09;5036134;28;45531;-53
2022/04/29 00:03:07;;;;;;;;;26.00;19.60;;;;;17.09;42.80;102047.75;5036110;28;45413;-54
2022/04/29 00:05:34;;;;;;;;;27.60;20.60;;;;;16.83;43.32;101999.69;5035815;28;46537;-52
2022/04/29 00:08:00;;;;;;;;;26.20;26.20;;;;;16.73;43.74;102002.06;5025468;28;45437;-49
2022/04/29 00:10:26;;;;;;;;;25.40;24.60;;;;;16.76;43.61;102027.44;5034768;28;45701;-56
2022/04/29 00:12:53;;;;;;;;;24.50;23.00;;;;;16.75;43.80;102020.19;5033492;28;45549;-57
2022/04/29 00:15:19;;;;;;;;;28.20;26.00;;;;;16.70;44.10;102028.31;5035550;28;45379;-55
2022/04/29 00:17:45;;;;;;;;;23.00;23.00;;;;;16.64;44.31;102024.53;5034889;28;45434;-52
2022/04/29 00:20:11;;;;;;;;;28.75;23.75;;;;;16.29;44.08;101965.88;5035875;28;45375;-52
2022/04/29 00:22:36;;;;;;;;;26.25;24.75;;;;;16.61;44.04;102016.66;5036461;28;45311;-54
2022/04/29 00:25:03;;;;;;;;;29.50;26.25;;;;;16.55;44.25;102013.91;5035482;28;46541;-53
2022/04/29 00:27:28;;;;;;;;;22.20;22.20;;;;;16.26;44.28;101950.53;5035535;28;45354;-54
2022/04/29 00:29:54;;;;;;;;;23.75;23.75;;;;;16.57;44.28;102012.63;5036169;28;45809;-51
2022/04/29 00:32:19;;;;;;;;;29.75;21.75;;;;;16.58;44.54;102013.44;5035545;28;45481;-53
2022/04/29 00:34:45;;;;;;;;;36.00;29.50;;;;;16.52;44.66;102004.13;5035534;28;45490;-52
2022/04/29 00:37:10;;;;;;;;;26.00;23.50;;;;;16.53;44.65;102006.69;5035470;28;45401;-52
2022/04/29 00:39:37;;;;;;;;;27.25;24.00;;;;;16.42;44.96;101998.22;5034386;28;45418;-53
2022/04/29 00:42:18;;;;;;;;;27.40;25.00;;;;;16.33;45.19;102000.38;5035664;28;45394;-51
2022/04/29 00:44:44;;;;;;;;;31.60;26.80;;;;;16.33;45.18;102004.00;5035014;28;46046;-50
2022/04/29 00:47:12;;;;;;;;;27.00;25.20;;;;;16.25;45.10;101994.03;5034155;28;45445;-49
2022/04/29 00:49:38;;;;;;;;;27.40;22.80;;;;;16.18;45.57;101992.34;5017870;28;45712;-51
2022/04/29 00:52:08;;;;;;;;;30.50;26.25;;;;;16.06;45.53;101972.81;5037749;28;45445;-51
2022/04/29 00:54:35;;;;;;;;;29.20;28.00;;;;;16.17;45.35;101985.13;5037466;28;45477;-54
2022/04/29 00:57:00;;;;;;;;;24.80;19.80;;;;;16.30;45.02;101989.72;5037607;28;45899;-56
2022/04/29 00:59:52;;;;;;;;;30.75;26.75;;;;;16.28;45.40;101995.50;5037300;28;45462;-49
2022/04/29 01:02:18;;;;;;;;;29.20;26.00;;;;;16.25;45.22;101982.94;5036085;28;45597;-55
2022/04/29 01:04:55;;;;;;;;;29.25;25.50;;;;;16.28;45.23;101987.19;5037011;28;45650;-57
2022/04/29 01:07:22;;;;;;;;;27.60;26.80;;;;;16.20;45.51;101966.13;5038274;28;45330;-51
2022/04/29 01:09:48;;;;;;;;;26.00;24.20;;;;;16.16;45.66;101972.34;5037036;28;45825;-52
2022/04/29 01:12:14;;;;;;;;;36.00;29.20;;;;;15.95;45.62;101943.88;5038708;28;45369;-54
2022/04/29 01:14:39;;;;;;;;;32.00;29.20;;;;;16.18;45.40;101967.41;5070950;28;47733;-54
2022/04/29 01:17:06;;;;;;;;;30.00;24.75;;;;;16.26;45.33;101969.94;5037990;28;45326;-51
2022/04/29 01:19:31;;;;;;;;;28.40;25.00;;;;;16.14;45.75;101967.00;5038641;28;45342;-52
2022/04/29 01:22:00;;;;;;;;;36.00;26.00;;;;;16.09;45.50;101973.22;5038192;28;45333;-51
2022/04/29 01:24:26;;;;;;;;;29.40;25.20;;;;;16.03;46.00;101963.00;5038082;28;45964;-53
2022/04/29 01:26:51;;;;;;;;;36.00;31.50;;;;;15.97;45.92;101958.34;5038013;28;45345;-53
2022/04/29 01:29:17;;;;;;;;;36.00;28.75;;;;;15.94;46.37;101959.63;5038245;28;45473;-55
2022/04/29 01:31:42;;;;;;;;;31.25;29.00;;;;;15.69;46.26;101929.03;5070905;28;45327;-54
2022/04/29 01:34:07;;;;;;;;;33.50;28.25;;;;;15.81;46.13;101960.47;5053394;28;45678;-51
2022/04/29 01:36:33;;;;;;;;;29.75;29.00;;;;;15.82;46.18;101961.34;5053424;28;45336;-53
2022/04/29 01:38:58;;;;;;;;;35.75;32.00;;;;;15.78;46.27;101960.06;5038039;28;45406;-54
2022/04/29 01:41:24;;;;;;;;;29.50;25.50;;;;;15.84;45.98;101965.59;5037013;28;45349;-53
2022/04/29 01:43:49;;;;;;;;;35.50;31.50;;;;;15.85;46.18;101975.59;5070377;28;45580;-52
2022/04/29 01:46:15;;;;;;;;;31.00;25.75;;;;;15.79;46.39;101973.69;5037493;28;45322;-50
2022/04/29 01:48:40;;;;;;;;;34.00;31.25;;;;;15.43;46.35;101925.25;5038109;28;45426;-52
2022/04/29 01:51:06;;;;;;;;;30.25;28.50;;;;;15.54;46.11;101943.94;5037948;28;45603;-52
2022/04/29 01:53:33;;;;;;;;;35.25;30.75;;;;;15.50;46.37;101930.75;5038024;28;45909;-54
2022/04/29 01:55:59;;;;;;;;;33.60;29.40;;;;;15.75;46.27;101963.28;5037739;28;45494;-55
2022/04/29 01:58:24;;;;;;;;;34.00;29.50;;;;;15.65;46.50;101942.44;5037518;28;45282;-50
2022/04/29 02:00:50;;;;;;;;;30.75;29.25;;;;;15.78;46.14;101958.16;5038255;28;45301;-51
2022/04/29 02:03:15;;;;;;;;;32.00;30.50;;;;;15.81;46.33;101966.00;5037191;28;46064;-54
2022/04/29 02:05:41;;;;;;;;;34.50;30.00;;;;;15.74;46.33;101980.97;5016633;28;46007;-57
2022/04/29 02:08:07;;;;;;;;;31.00;29.50;;;;;15.37;46.73;101938.00;5034264;28;45349;-51
2022/04/29 02:10:32;;;;;;;;;33.40;28.00;;;;;15.65;46.26;101977.56;5036970;28;45590;-51
2022/04/29 02:12:58;;;;;;;;;31.25;30.25;;;;;15.61;46.62;101970.75;5037720;28;45358;-55
2022/04/29 02:15:23;;;;;;;;;35.25;28.75;;;;;15.59;46.78;101970.97;5069691;28;45611;-56
2022/04/29 02:17:49;;;;;;;;;31.25;28.75;;;;;15.57;47.05;101976.72;5037758;28;45391;-51
2022/04/29 02:20:14;;;;;;;;;33.00;29.00;;;;;15.60;46.40;101986.53;5037688;28;45306;-52
2022/04/29 02:22:40;;;;;;;;;20.00;16.00;;;;;15.53;46.66;101974.63;5037509;28;46089;-51
2022/04/29 02:25:06;;;;;;;;;35.75;31.50;;;;;15.25;46.95;101942.50;5069900;28;45301;-55
2022/04/29 02:27:32;;;;;;;;;28.50;25.25;;;;;15.43;47.22;101978.66;5037115;28;45370;-56
2022/04/29 02:29:57;;;;;;;;;38.75;31.50;;;;;15.52;46.53;101975.69;5037952;28;45306;-53
2022/04/29 02:32:23;;;;;;;;;34.25;30.25;;;;;15.13;47.51;101931.22;5036944;28;46902;-54
2022/04/29 02:34:48;;;;;;;;;37.00;32.75;;;;;15.53;46.84;101992.03;5070117;28;45672;-49
2022/04/29 02:37:14;;;;;;;;;33.75;31.25;;;;;15.35;47.11;101967.81;5035933;28;45435;-56
2022/04/29 02:39:39;;;;;;;;;34.75;30.50;;;;;15.49;46.84;101989.94;5037599;28;45567;-51
2022/04/29 02:42:07;;;;;;;;;40.25;35.25;;;;;15.38;47.08;101986.72;5037171;28;45485;-52
2022/04/29 02:44:33;;;;;;;;;33.80;30.40;;;;;15.12;47.35;101966.34;5036936;28;45396;-53
2022/04/29 02:47:07;;;;;;;;;34.00;31.75;;;;;15.32;47.23;101984.84;5037619;28;45499;-49
2022/04/29 02:49:41;;;;;;;;;29.00;26.60;;;;;15.21;47.35;101977.19;5036923;28;45346;-53
2022/04/29 02:52:07;;;;;;;;;33.00;28.60;;;;;15.21;47.33;101988.25;5067951;28;46207;-53
2022/04/29 02:54:33;;;;;;;;;32.60;29.20;;;;;15.31;47.17;101981.22;5036978;28;45672;-54
2022/04/29 02:56:58;;;;;;;;;36.00;32.00;;;;;15.34;46.80;101971.66;5037154;28;45402;-53
2022/04/29 02:59:24;;;;;;;;;38.25;31.50;;;;;15.37;47.08;101978.69;5036907;28;45299;-54
2022/04/29 03:01:49;;;;;;;;;31.00;29.00;;;;;15.46;46.94;101980.13;5036116;28;45504;-54
2022/04/29 03:04:15;;;;;;;;;36.75;32.00;;;;;15.38;47.04;101974.84;5036663;28;45302;-50
2022/04/29 03:06:40;;;;;;;;;32.75;30.50;;;;;15.36;47.44;101977.81;5036647;28;45338;-47
2022/04/29 03:09:06;;;;;;;;;32.25;25.25;;;;;15.42;46.62;101974.19;5036828;28;45399;-53
2022/04/29 03:11:31;;;;;;;;;29.00;25.75;;;;;15.32;46.76;101974.63;5068400;28;47034;-56
2022/04/29 03:13:57;;;;;;;;;37.75;32.00;;;;;15.34;46.92;101971.66;5036192;28;45290;-52
2022/04/29 03:16:22;;;;;;;;;31.25;28.00;;;;;15.25;46.74;101979.31;5036783;28;45699;-48
2022/04/29 03:18:48;;;;;;;;;37.00;31.25;;;;;15.17;47.09;101974.84;5035140;28;46018;-53
2022/04/29 03:21:13;;;;;;;;;30.25;28.25;;;;;15.21;47.30;101972.50;5036153;28;47215;-53
2022/04/29 03:23:39;;;;;;;;;37.50;31.50;;;;;15.31;46.80;101977.59;5035900;28;45293;-51
2022/04/29 03:26:05;;;;;;;;;29.00;28.00;;;;;15.34;46.73;101970.78;5036210;28;45350;-49
2022/04/29 03:28:31;;;;;;;;;37.50;33.25;;;;;15.38;46.89;101969.31;5036468;28;45412;-54
2022/04/29 03:30:58;;;;;;;;;33.00;31.00;;;;;15.40;46.93;101965.25;5036157;28;45562;-52
2022/04/29 03:33:23;;;;;;;;;31.80;30.20;;;;;15.21;46.50;101935.72;5034852;28;45318;-53
2022/04/29 03:35:52;;;;;;;;;38.50;33.50;;;;;15.42;46.48;101965.06;5036137;28;45355;-52
2022/04/29 03:38:18;;;;;;;;;36.80;32.60;;;;;15.36;46.92;101961.22;5036324;28;45513;-51
2022/04/29 03:40:44;;;;;;;;;35.25;29.25;;;;;15.31;46.90;101958.22;5035848;28;45897;-51
2022/04/29 03:43:12;;;;;;;;;39.25;33.25;;;;;15.15;46.48;101923.56;5036037;28;45382;-55
2022/04/29 03:45:37;;;;;;;;;33.80;29.80;;;;;15.34;46.98;101954.19;5034899;28;45488;-51
2022/04/29 03:48:03;;;;;;;;;29.50;28.00;;;;;15.03;47.04;101937.19;5035949;28;45390;-52
2022/04/29 03:50:29;;;;;;;;;36.75;32.25;;;;;15.09;47.66;101949.34;5035865;28;46842;-55
2022/04/29 03:52:56;;;;;;;;;27.20;27.00;;;;;15.07;47.51;101934.84;5035573;28;45307;-52
2022/04/29 03:55:26;;;;;;;;;38.00;32.20;;;;;14.81;47.85;101884.91;5036118;28;45689;-51
2022/04/29 03:57:53;;;;;;;;;35.80;32.40;;;;;15.14;46.92;101919.97;5034237;28;45440;-50
2022/04/29 04:00:19;;;;;;;;;42.00;34.40;;;;;15.23;46.82;101931.66;5036282;28;45357;-52
2022/04/29 04:02:44;;;;;;;;;29.20;29.20;;;;;15.06;47.03;101900.84;5035847;28;45260;-51
2022/04/29 04:05:10;;;;;;;;;31.25;29.25;;;;;15.18;47.24;101928.69;5036151;28;45310;-51
2022/04/29 04:07:36;;;;;;;;;31.25;29.75;;;;;15.14;47.05;101921.88;5032419;28;45966;-52
2022/04/29 04:10:05;;;;;;;;;32.50;27.75;;;;;15.20;47.11;101918.25;5048040;28;46361;-53
2022/04/29 04:12:51;;;;;;;;;31.20;29.20;;;;;15.15;47.15;101927.19;5009879;28;45371;-51
2022/04/29 04:15:17;;;;;;;;;30.80;29.40;;;;;15.19;47.32;101935.91;5035581;28;45390;-52
2022/04/29 04:17:43;;;;;;;;;28.80;28.20;;;;;15.13;46.63;101921.03;5036057;28;45462;-53
2022/04/29 04:20:09;;;;;;;;;29.25;28.75;;;;;15.17;46.83;101925.06;5035670;28;45595;-55
2022/04/29 04:22:35;;;;;;;;;32.20;30.20;;;;;15.18;47.25;101925.91;5035512;28;45349;-56
2022/04/29 04:25:10;;;;;;;;;33.75;32.00;;;;;15.10;46.87;101931.69;5035602;28;45404;-53
2022/04/29 04:27:36;;;;;;;;;38.80;32.40;;;;;15.06;47.49;101933.16;5035426;28;45600;-52
2022/04/29 04:30:02;;;;;;;;;35.75;32.00;;;;;15.10;47.25;101932.50;5035504;28;45606;-57
2022/04/29 04:32:27;;;;;;;;;30.40;30.00;;;;;15.05;47.15;101932.28;5035968;28;45204;-50
2022/04/29 04:34:54;;;;;;;;;31.50;30.00;;;;;15.03;47.08;101934.44;5035945;28;45336;-49
2022/04/29 04:37:22;;;;;;;;;33.00;32.20;;;;;15.03;47.81;101932.53;5035678;28;45290;-50
2022/04/29 04:39:48;;;;;;;;;32.60;28.80;;;;;15.09;47.36;101932.75;5035749;28;46253;-49
2022/04/29 04:42:14;;;;;;;;;38.00;32.75;;;;;15.01;47.09;101926.34;5035212;28;45433;-50
2022/04/29 04:44:40;;;;;;;;;38.00;32.25;;;;;15.03;47.25;101929.75;5034379;28;45346;-51
2022/04/29 04:47:05;;;;;;;;;36.25;31.50;;;;;15.10;47.17;101938.03;5034398;28;45647;-56
2022/04/29 04:49:31;;;;;;;;;32.75;30.75;;;;;15.08;46.92;101934.66;5035045;28;46217;-56
2022/04/29 04:51:57;;;;;;;;;33.40;31.00;;;;;14.91;47.64;101924.00;5035683;28;45346;-55
2022/04/29 04:54:23;;;;;;;;;33.75;31.50;;;;;14.92;47.10;101935.91;5035159;28;45427;-50
2022/04/29 04:56:48;;;;;;;;;40.50;32.00;;;;;14.94;47.07;101933.78;5034527;28;45318;-53
2022/04/29 04:59:14;;;;;;;;;36.75;31.50;;;;;15.01;47.03;101942.94;5034606;28;45660;-56
2022/04/29 05:01:39;;;;;;;;;25.25;24.75;;;;;14.96;47.69;101945.50;5033872;28;45515;-54
2022/04/29 05:04:05;;;;;;;;;37.25;33.25;;;;;15.05;47.42;101948.88;5034987;28;46039;-50
2022/04/29 05:06:30;;;;;;;;;33.00;28.00;;;;;15.08;47.39;101945.72;5034915;28;45395;-52
2022/04/29 05:08:56;;;;;;;;;35.00;31.00;;;;;14.94;47.02;101944.84;5034930;28;46081;-53
2022/04/29 05:11:21;;;;;;;;;37.50;30.00;;;;;14.88;47.18;101953.97;5034377;28;45462;-52
2022/04/29 05:13:47;;;;;;;;;32.25;26.50;;;;;14.75;47.04;101918.91;5067437;28;45345;-54
2022/04/29 05:16:12;;;;;;;;;32.00;30.25;;;;;14.98;46.83;101950.78;5035202;28;45352;-52
2022/04/29 05:18:38;;;;;;;;;37.00;32.00;;;;;14.95;47.32;101951.22;5066856;28;46020;-52
2022/04/29 05:21:03;;;;;;;;;28.50;28.00;;;;;14.79;46.78;101941.44;5034830;28;45444;-51
2022/04/29 05:23:29;;;;;;;;;31.75;25.00;;;;;14.83;47.44;101959.31;5034457;28;45350;-56
2022/04/29 05:25:55;;;;;;;;;29.25;26.50;;;;;14.57;46.93;101917.56;5050437;28;45354;-54
2022/04/29 05:28:21;;;;;;;;;31.00;29.25;;;;;14.74;47.81;101955.91;5033159;28;45282;-53
2022/04/29 05:30:46;;;;;;;;;32.00;27.60;;;;;14.74;47.25;101958.66;5034764;28;45219;-51
2022/04/29 05:33:12;;;;;;;;;34.50;28.00;;;;;14.73;47.12;101956.94;5034484;28;45446;-53
2022/04/29 05:35:38;;;;;;;;;33.50;32.75;;;;;14.68;47.21;101963.06;5034714;28;45259;-52
2022/04/29 05:38:03;;;;;;;;;33.25;28.00;;;;;14.71;47.34;101970.09;5036148;28;46675;-50
2022/04/29 05:43:13;;;;;;;;;36.00;29.60;;;;;14.66;47.53;101969.88;5037476;28;45329;-54
2022/04/29 05:45:38;;;;;;;;;26.75;26.25;;;;;14.73;47.62;101966.06;5037912;28;45351;-53
2022/04/29 05:48:04;;;;;;;;;31.50;27.25;;;;;14.80;46.89;101979.94;5037504;28;45337;-50
2022/04/29 05:50:30;;;;;;;;;32.50;30.50;;;;;14.81;47.39;101972.47;5069967;28;45494;-49
2022/04/29 05:52:55;;;;;;;;;34.75;27.00;;;;;14.76;47.12;101976.75;5037762;28;45329;-53
2022/04/29 05:55:22;;;;;;;;;31.50;27.75;;;;;14.77;47.21;101972.91;5037027;28;46212;-55
2022/04/29 05:57:48;;;;;;;;;28.40;25.60;;;;;14.82;47.15;101966.75;5036976;28;46009;-55
2022/04/29 06:00:14;;;;;;;;;34.25;31.00;;;;;14.87;47.06;101977.16;5037411;28;45407;-53
2022/04/29 06:02:40;;;;;;;;;32.60;29.20;;;;;14.87;47.30;101986.31;5037449;28;45338;-50
2022/04/29 06:05:06;;;;;;;;;33.50;31.75;;;;;14.72;47.16;101989.22;5036370;28;45342;-50
2022/04/29 06:07:31;;;;;;;;;27.80;27.40;;;;;14.73;47.03;101990.09;5052746;28;47635;-50
2022/04/29 06:09:57;;;;;;;;;34.25;29.00;;;;;14.77;47.00;102000.53;5035868;28;45491;-53
2022/04/29 06:12:22;;;;;;;;;32.75;29.50;;;;;14.79;47.16;101997.56;5037729;28;45378;-49
2022/04/29 06:14:48;;;;;;;;;26.50;23.75;;;;;14.72;47.40;101997.50;5036064;28;45643;-61
2022/04/29 06:17:13;;;;;;;;;30.75;28.50;;;;;14.71;47.09;101995.81;5037373;28;46457;-53
2022/04/29 06:19:39;;;;;;;;;34.75;28.25;;;;;14.75;46.82;101991.63;5037224;28;45362;-50
2022/04/29 06:22:05;;;;;;;;;26.25;23.50;;;;;14.77;47.12;101989.50;5037149;28;45489;-52
2022/04/29 06:24:31;;;;;;;;;31.75;28.00;;;;;14.25;46.78;101913.69;5037549;28;45444;-55
2022/04/29 06:26:56;;;;;;;;;32.60;28.80;;;;;14.59;46.72;101967.97;5036744;28;46573;-51
2022/04/29 06:29:22;;;;;;;;;33.25;28.00;;;;;14.72;46.90;101999.41;5037068;28;45548;-51
2022/04/29 06:31:48;;;;;;;;;32.50;27.50;;;;;14.68;47.08;101992.63;5036995;28;45299;-54
2022/04/29 06:34:13;;;;;;;;;34.25;29.50;;;;;14.82;47.14;101996.28;5035951;28;45400;-56
2022/04/29 06:36:38;;;;;;;;;28.50;26.50;;;;;14.74;47.14;101994.59;5037091;28;46454;-50
2022/04/29 06:39:04;;;;;;;;;32.75;31.00;;;;;14.76;47.07;102003.50;5036367;28;45389;-53
2022/04/29 06:41:30;;;;;;;;;30.25;27.50;;;;;14.84;47.45;102000.53;5036993;28;45308;-50
2022/04/29 06:43:55;;;;;;;;;30.75;28.50;;;;;14.88;47.23;101996.31;5035855;28;45638;-52
2022/04/29 06:46:24;;;;;;;;;35.75;32.50;;;;;14.93;47.27;102000.38;5036671;28;46609;-51
2022/04/29 06:48:50;;;;;;;;;31.80;27.80;;;;;14.92;47.04;102005.03;5035955;28;45653;-50
2022/04/29 06:51:15;;;;;;;;;28.60;27.60;;;;;14.74;47.14;101970.53;5036886;28;45428;-58
2022/04/29 06:53:41;;;;;;;;;36.00;33.00;;;;;14.96;46.59;102005.47;5036095;28;45544;-53
2022/04/29 06:56:06;;;;;;;;;36.50;32.00;;;;;14.96;47.28;102009.09;4995555;28;46644;-53
2022/04/29 06:58:32;;;;;;;;;26.75;26.75;;;;;14.83;47.47;101981.44;5015445;28;45464;-56
2022/04/29 07:00:57;;;;;;;;;41.25;34.25;;;;;14.97;47.41;101999.72;5017162;28;45349;-51
2022/04/29 07:03:23;;;;;;;;;38.75;29.00;;;;;14.84;47.21;101999.72;5016916;28;45444;-58
2022/04/29 07:05:51;;;;;;;;;46.00;36.25;;;;;14.80;47.64;102010.31;5017135;28;45397;-57
2022/04/29 07:08:16;;;;;;;;;43.40;36.20;;;;;14.74;47.32;102012.00;5016850;28;45386;-56
2022/04/29 07:10:42;;;;;;;;;35.00;30.00;;;;;14.48;47.13;101955.59;5026923;28;45329;-52
2022/04/29 07:13:09;;;;;;;;;35.75;29.25;;;;;14.97;47.24;102013.53;5035777;28;45567;-55
2022/04/29 07:15:34;;;;;;;;;38.60;33.20;;;;;15.02;47.16;102012.91;5036720;28;45451;-48
2022/04/29 07:18:00;;;;;;;;;39.75;35.00;;;;;14.83;47.52;101989.72;5036926;28;45399;-52
2022/04/29 07:20:25;;;;;;;;;36.50;30.75;;;;;15.03;47.09;102018.22;5036401;28;45371;-49
2022/04/29 07:22:51;;;;;;;;;34.00;32.25;;;;;15.10;47.51;102020.16;5036595;28;45420;-50
2022/04/29 07:25:16;;;;;;;;;39.75;31.75;;;;;15.01;46.87;102025.88;5036344;28;45390;-54
2022/04/29 07:27:42;;;;;;;;;35.00;31.00;;;;;14.88;47.75;102000.97;5036424;28;45464;-57
2022/04/29 07:30:08;;;;;;;;;35.50;31.00;;;;;15.03;47.48;102026.53;5036683;28;45434;-52
2022/04/29 07:32:34;;;;;;;;;35.00;30.40;;;;;15.02;47.61;102019.31;5036509;28;45450;-53
2022/04/29 07:43:11;;;;;;;;;37.00;32.00;;;;;15.12;47.83;102032.72;5036606;28;45409;-50
2022/04/29 07:45:38;;;;;;;;;42.25;35.25;;;;;15.18;47.55;102023.56;5035781;28;45424;-50
2022/04/29 07:48:05;;;;;;;;;36.80;30.60;;;;;15.36;47.33;102029.53;5035982;28;45496;-51
2022/04/29 07:50:31;;;;;;;;;40.20;33.80;;;;;15.40;47.80;102028.03;5035355;28;45444;-49
2022/04/29 07:52:57;;;;;;;;;40.00;34.20;;;;;15.32;46.98;102001.44;5036397;28;45530;-52
2022/04/29 07:55:23;;;;;;;;;46.20;35.80;;;;;15.50;47.09;102024.81;5034256;28;47132;-49
2022/04/29 07:57:48;;;;;;;;;35.75;34.25;;;;;15.54;47.32;102021.41;5034521;28;45426;-51
2022/04/29 08:00:14;;;;;;;;;48.25;36.25;;;;;15.56;47.52;102024.84;5035757;28;45299;-51
2022/04/29 08:02:40;;;;;;;;;45.40;36.80;;;;;15.62;47.55;102025.06;5035380;28;45444;-48
2022/04/29 08:05:06;;;;;;;;;44.00;36.50;;;;;15.72;48.86;102034.63;5034301;28;47281;-47
2022/04/29 08:07:33;;;;;;;;;40.50;36.50;;;;;15.59;47.83;101993.97;5035435;28;45411;-49
2022/04/29 08:09:59;;;;;;;;;46.20;36.80;;;;;15.86;47.62;102029.06;5035651;28;45440;-52
2022/04/29 08:12:26;;;;;;;;;45.25;36.75;;;;;15.78;47.64;102026.50;5005598;28;45358;-50
2022/04/29 08:14:53;;;;;;;;;42.80;34.80;;;;;15.77;47.75;102033.97;5035191;28;47758;-51
2022/04/29 08:17:19;;;;;;;;;39.60;34.80;;;;;15.73;47.68;102027.16;5013023;27;45751;-56
2022/04/29 08:19:45;;;;;;;;;48.00;39.20;;;;;15.80;47.75;102029.91;5033327;28;45569;-50
2022/04/29 08:22:10;;;;;;;;;47.00;37.25;;;;;15.87;47.29;102036.28;5035272;28;45499;-47
2022/04/29 08:24:36;;;;;;;;;49.00;39.75;;;;;15.88;47.43;102037.13;5035021;28;45858;-50
2022/04/29 08:27:01;;;;;;;;;51.50;42.00;;;;;15.83;47.43;102033.09;5067338;28;45412;-51
2022/04/29 08:29:27;;;;;;;;;52.50;41.75;;;;;15.89;47.24;102030.53;5035261;28;45349;-49
2022/04/29 08:31:52;;;;;;;;;49.50;38.25;;;;;15.69;47.82;101998.22;5034063;28;45593;-51
2022/04/29 08:34:18;;;;;;;;;46.75;38.00;;;;;15.79;47.52;102029.06;5035384;28;45948;-50
2022/04/29 08:36:44;;;;;;;;;50.75;41.00;;;;;15.85;47.34;102022.66;5067141;28;45432;-50
2022/04/29 08:39:09;;;;;;;;;48.40;38.40;;;;;15.80;46.80;102003.06;5035237;28;45303;-51
2022/04/29 08:41:38;;;;;;;;;47.75;39.25;;;;;15.92;47.24;102039.28;5035046;28;45253;-50
2022/04/29 08:44:05;;;;;;;;;49.80;40.60;;;;;16.00;47.13;102029.88;5033897;28;45504;-50
2022/04/29 08:46:30;;;;;;;;;49.80;38.40;;;;;16.07;46.77;102033.47;5050335;28;45596;-50
2022/04/29 08:48:56;;;;;;;;;47.25;39.25;;;;;16.18;47.26;102044.97;5035241;28;45679;-49
2022/04/29 08:51:21;;;;;;;;;52.00;41.25;;;;;16.16;46.85;102044.34;5033986;28;45402;-54
2022/04/29 08:53:48;;;;;;;;;55.25;39.75;;;;;16.34;46.81;102043.63;5034921;28;45484;-49
2022/04/29 08:58:57;;;;;;;;;53.00;42.60;;;;;16.53;46.42;102052.91;5035071;28;45372;-54
2022/04/29 09:01:23;;;;;;;;;56.50;42.25;;;;;16.54;46.42;102043.53;5066426;28;45455;-52
2022/04/29 09:03:48;;;;;;;;;49.25;41.00;;;;;16.43;46.17;102017.38;5066624;27;45531;-49
2022/04/29 09:06:17;;;;;;;;;53.25;43.75;;;;;16.59;46.25;102042.91;5035173;28;45658;-49
2022/04/29 09:08:46;;;;;;;;;50.40;41.20;;;;;16.59;46.26;102040.13;5038078;28;45784;-50
2022/04/29 09:11:22;;;;;;;;;47.80;39.60;;;;;16.60;46.54;102037.09;5034878;27;45649;-51
2022/04/29 09:13:48;;;;;;;;;56.20;42.80;;;;;16.70;46.49;102038.56;5026173;28;46388;-54
2022/04/29 09:16:14;;;;;;;;;52.25;43.25;;;;;16.84;46.19;102040.19;5036659;28;45493;-54
2022/04/29 09:18:43;;;;;;;;;51.80;43.40;;;;;16.78;46.17;102036.41;5027107;27;45406;-53
2022/04/29 09:21:12;;;;;;;;;58.50;46.75;;;;;16.90;46.11;102041.22;5036862;28;45410;-51
2022/04/29 09:23:44;;;;;;;;;50.40;41.20;;;;;16.98;45.63;102040.09;5037170;28;46141;-49
2022/04/29 09:26:23;;;;;;;;;49.00;40.20;;;;;16.98;45.63;102035.41;5037820;28;45683;-54
2022/04/29 09:28:50;;;;;;;;;52.20;41.80;;;;;17.02;45.42;102030.31;5038380;28;45408;-54
2022/04/29 09:31:16;;;;;;;;;51.80;42.20;;;;;17.08;45.24;102032.19;5037162;28;45322;-56
2022/04/29 09:33:55;;;;;;;;;51.50;41.75;;;;;17.16;45.24;102029.13;5037983;28;45985;-47
2022/04/29 09:36:22;;;;;;;;;51.80;41.00;;;;;17.07;45.11;101994.41;5038073;28;45469;-50
2022/04/29 09:41:52;;;;;;;;;48.60;39.80;;;;;17.49;44.92;102029.91;5038180;28;45379;-49
2022/04/29 09:44:33;;;;;;;;;50.60;42.40;;;;;17.64;44.60;102026.78;5070145;28;46947;-48
2022/04/29 09:47:28;;;;;;;;;51.20;41.20;;;;;17.88;43.82;102027.00;5037708;28;45460;-47
2022/04/29 09:49:55;;;;;;;;;49.80;39.40;;;;;17.88;43.79;101990.91;5036471;28;45859;-48
2022/04/29 09:52:22;;;;;;;;;48.40;37.60;;;;;18.10;43.35;102007.13;5037693;28;45429;-47
2022/04/29 09:54:47;;;;;;;;;46.00;37.20;;;;;18.09;43.65;102009.03;5037932;28;45854;-48
2022/04/29 09:57:14;;;;;;;;;51.50;41.50;;;;;17.97;43.03;102013.63;5037663;28;45338;-52
2022/04/29 09:59:46;;;;;;;;;51.60;39.00;;;;;18.00;43.37;102018.72;5037334;28;45516;-49
2022/04/29 10:02:15;;;;;;;;;48.00;38.40;;;;;17.82;43.26;101994.59;5068204;28;45410;-53
2022/04/29 10:04:43;;;;;;;;;49.80;39.00;;;;;18.01;43.43;102018.50;5037382;28;46603;-50
2022/04/29 10:07:13;;;;;;;;;47.00;39.20;;;;;18.06;43.57;102011.44;5037222;28;45388;-52
2022/04/29 10:09:40;;;;;;;;;48.60;38.80;;;;;18.25;43.10;102010.34;5029562;28;45580;-49
2022/04/29 10:12:27;;;;;;;;;45.20;36.40;;;;;18.39;42.74;102018.50;5030046;28;45370;-55
2022/04/29 10:14:57;;;;;;;;;40.40;35.40;;;;;18.44;42.68;102007.53;5025833;28;45708;-49
2022/04/29 10:23:04;;;;;;;;;49.00;38.00;;;;;18.82;41.59;102011.06;5035132;28;45422;-51
2022/04/29 10:25:30;;;;;;;;;46.20;35.40;;;;;18.91;41.47;102012.44;5034368;28;46101;-49
2022/04/29 10:27:55;;;;;;;;;41.75;36.25;;;;;18.80;41.54;101971.53;5035286;28;45369;-49
2022/04/29 10:30:31;;;;;;;;;47.00;39.00;;;;;19.01;40.97;102003.53;5034504;27;45468;-49
2022/04/29 10:33:05;;;;;;;;;41.80;35.20;;;;;19.06;40.65;102013.97;5018884;28;45398;-54
2022/04/29 10:35:39;;;;;;;;;40.80;35.80;;;;;19.17;40.54;102017.84;5034745;28;46690;-49
2022/04/29 10:38:17;;;;;;;;;47.00;35.60;;;;;19.21;40.58;102010.72;5035993;28;45229;-54
2022/04/29 10:40:44;;;;;;;;;40.00;33.00;;;;;19.32;40.52;102004.31;5036336;28;45595;-49
2022/04/29 10:43:10;;;;;;;;;41.40;35.20;;;;;19.47;40.65;101998.28;5035269;28;45634;-47
2022/04/29 10:45:57;;;;;;;;;45.40;36.40;;;;;19.69;41.11;102006.00;5035412;28;47821;-46
2022/04/29 10:48:39;;;;;;;;;40.20;33.40;;;;;19.85;40.23;102003.59;5034941;28;45550;-48
2022/04/29 10:51:21;;;;;;;;;40.40;33.20;;;;;19.91;40.29;101997.03;5017478;28;45330;-52
2022/04/29 10:53:51;;;;;;;;;40.20;34.20;;;;;20.06;40.09;102004.06;5016614;28;45314;-54
2022/04/29 10:56:33;;;;;;;;;44.40;34.60;;;;;20.07;39.77;102000.19;5016998;28;46780;-51
2022/04/29 10:59:21;;;;;;;;;44.00;36.40;;;;;19.96;40.30;102004.69;5006271;28;45382;-54
2022/04/29 11:02:08;;;;;;;;;43.60;35.80;;;;;19.92;40.28;101993.16;5024059;28;45814;-54
2022/04/29 11:04:34;;;;;;;;;41.60;35.80;;;;;19.91;40.35;102002.63;5027325;28;45774;-56
2022/04/29 11:07:00;;;;;;;;;46.40;38.60;;;;;19.91;40.18;102000.66;5032132;28;45472;-53
2022/04/29 11:09:28;;;;;;;;;46.75;36.25;;;;;19.95;40.80;102009.41;5030731;28;45433;-50
2022/04/29 11:11:54;;;;;;;;;49.20;38.60;;;;;19.85;39.25;101968.22;5032049;28;45476;-49
2022/04/29 11:14:19;;;;;;;;;43.20;36.40;;;;;20.26;39.84;101992.47;5032651;28;45509;-50
2022/04/29 11:16:56;;;;;;;;;47.00;37.50;;;;;20.47;39.14;101992.91;5028261;28;45853;-52
2022/04/29 11:19:28;;;;;;;;;45.40;37.00;;;;;20.53;38.84;101991.91;5032082;28;45829;-51
2022/04/29 11:24:43;;;;;;;;;41.80;35.40;;;;;20.27;38.29;101944.88;5031171;28;45624;-52
2022/04/29 11:27:09;;;;;;;;;39.60;33.40;;;;;20.51;38.39;101991.31;5029583;28;45765;-50
2022/04/29 11:29:44;;;;;;;;;37.50;33.00;;;;;20.58;38.51;101984.50;5030577;28;45662;-52
2022/04/29 11:32:10;;;;;;;;;37.20;34.00;;;;;20.72;38.17;101990.59;5010196;28;45476;-51
2022/04/29 11:34:36;;;;;;;;;45.00;37.75;;;;;20.74;37.07;101982.00;5028627;28;45448;-49